sensor_id;sensor_type;location;lat;lon;timestamp;pressure;altitude;pressure_sealevel;temperature;humidity
78014;BME280;67222;50.182;8.734;2023-06-22T04:31:14;100561.19;;;20.09;82.69
78014;BME280;67222;50.182;8.734;2023-06-22T04:33:40;100553.06;;;20.09;81.28
78014;BME280;67222;50.182;8.734;2023-06-22T04:36:05;100554.22;;;20.28;82.73
78014;BME280;67222;50.182;8.734;2023-06-22T04:38:30;100549.66;;;20.39;83.52
78014;BME280;67222;50.182;8.734;2023-06-22T04:40:59;100554.47;;;20.26;81.47
78014;BME280;67222;50.182;8.734;2023-06-22T04:43:27;100558.03;;;20.27;80.50
78014;BME280;67222;50.182;8.734;2023-06-22T04:45:58;100565.63;;;20.35;82.10
78014;BME280;67222;50.182;8.734;2023-06-22T04:48:28;100561.59;;;20.43;83.37
78014;BME280;67222;50.182;8.734;2023-06-22T04:50:58;100569.25;;;20.56;82.81
78014;BME280;67222;50.182;8.734;2023-06-22T04:53:30;100559.97;;;20.42;82.34
78014;BME280;67222;50.182;8.734;2023-06-22T04:55:56;100563.78;;;20.41;81.92
78014;BME280;67222;50.182;8.734;2023-06-22T04:58:21;100565.91;;;20.34;80.92
78014;BME280;67222;50.182;8.734;2023-06-22T05:00:47;100563.19;;;20.39;81.99
78014;BME280;67222;50.182;8.734;2023-06-22T05:03:12;100554.88;;;20.45;82.54
78014;BME280;67222;50.182;8.734;2023-06-22T05:05:38;100559.53;;;20.65;82.89
78014;BME280;67222;50.182;8.734;2023-06-22T05:08:03;100556.78;;;20.55;81.87
78014;BME280;67222;50.182;8.734;2023-06-22T05:10:32;100553.78;;;20.46;80.85
78014;BME280;67222;50.182;8.734;2023-06-22T05:12:58;100549.47;;;20.55;81.76
78014;BME280;67222;50.182;8.734;2023-06-22T05:15:23;100546.00;;;20.65;82.29
78014;BME280;67222;50.182;8.734;2023-06-22T05:17:51;100553.31;;;20.70;82.77
78014;BME280;67222;50.182;8.734;2023-06-22T05:20:17;100543.81;;;20.67;81.43
78014;BME280;67222;50.182;8.734;2023-06-22T05:22:43;100539.50;;;20.71;82.65
78014;BME280;67222;50.182;8.734;2023-06-22T05:25:10;100548.44;;;20.77;81.89
78014;BME280;67222;50.182;8.734;2023-06-22T05:27:36;100553.84;;;20.77;81.78
78014;BME280;67222;50.182;8.734;2023-06-22T05:30:06;100560.94;;;20.83;81.84
78014;BME280;67222;50.182;8.734;2023-06-22T05:32:32;100552.50;;;20.79;81.01
78014;BME280;67222;50.182;8.734;2023-06-22T05:34:58;100544.41;;;20.84;81.71
78014;BME280;67222;50.182;8.734;2023-06-22T05:37:23;100538.16;;;20.89;81.21
78014;BME280;67222;50.182;8.734;2023-06-22T05:39:49;100541.69;;;20.84;80.20
78014;BME280;67222;50.182;8.734;2023-06-22T05:42:14;100539.25;;;20.83;79.93
78014;BME280;67222;50.182;8.734;2023-06-22T05:44:39;100530.84;;;20.90;80.57
78014;BME280;67222;50.182;8.734;2023-06-22T05:47:05;100532.75;;;20.94;80.55
78014;BME280;67222;50.182;8.734;2023-06-22T05:49:31;100527.03;;;20.96;80.40
78014;BME280;67222;50.182;8.734;2023-06-22T05:51:58;100528.66;;;20.97;80.51
78014;BME280;67222;50.182;8.734;2023-06-22T05:54:23;100530.84;;;21.00;80.34
78014;BME280;67222;50.182;8.734;2023-06-22T05:56:48;100534.38;;;21.05;81.83
78014;BME280;67222;50.182;8.734;2023-06-22T05:59:14;100531.94;;;21.04;82.12
78014;BME280;67222;50.182;8.734;2023-06-22T06:01:39;100526.81;;;21.02;80.20
78014;BME280;67222;50.182;8.734;2023-06-22T06:04:05;100533.84;;;21.13;81.67
78014;BME280;67222;50.182;8.734;2023-06-22T06:06:33;100530.84;;;21.15;82.01
78014;BME280;67222;50.182;8.734;2023-06-22T06:09:00;100534.13;;;21.22;82.64
78014;BME280;67222;50.182;8.734;2023-06-22T06:11:25;100532.50;;;21.21;81.61
78014;BME280;67222;50.182;8.734;2023-06-22T06:13:51;100530.63;;;21.27;80.51
78014;BME280;67222;50.182;8.734;2023-06-22T06:16:16;100530.88;;;21.35;80.15
78014;BME280;67222;50.182;8.734;2023-06-22T06:18:41;100518.94;;;21.36;80.08
78014;BME280;67222;50.182;8.734;2023-06-22T06:21:07;100519.75;;;21.42;80.71
78014;BME280;67222;50.182;8.734;2023-06-22T06:23:32;100518.13;;;21.41;79.54
78014;BME280;67222;50.182;8.734;2023-06-22T06:25:57;100520.00;;;21.51;79.79
78014;BME280;67222;50.182;8.734;2023-06-22T06:28:24;100516.19;;;21.57;80.88
78014;BME280;67222;50.182;8.734;2023-06-22T06:30:50;100510.50;;;21.63;80.93
78014;BME280;67222;50.182;8.734;2023-06-22T06:33:17;100504.50;;;21.66;81.18
78014;BME280;67222;50.182;8.734;2023-06-22T06:35:42;100515.91;;;21.68;80.92
78014;BME280;67222;50.182;8.734;2023-06-22T06:38:07;100515.91;;;21.68;79.80
78014;BME280;67222;50.182;8.734;2023-06-22T06:40:33;100512.09;;;21.80;79.78
78014;BME280;67222;50.182;8.734;2023-06-22T06:42:58;100513.38;;;21.92;80.19
78014;BME280;67222;50.182;8.734;2023-06-22T06:45:24;100509.06;;;21.96;78.92
78014;BME280;67222;50.182;8.734;2023-06-22T06:47:51;100504.41;;;22.02;80.00
78014;BME280;67222;50.182;8.734;2023-06-22T06:50:17;100500.31;;;22.10;77.93
78014;BME280;67222;50.182;8.734;2023-06-22T06:52:43;100510.88;;;22.21;80.11
78014;BME280;67222;50.182;8.734;2023-06-22T06:55:09;100498.38;;;22.20;78.04
78014;BME280;67222;50.182;8.734;2023-06-22T06:57:38;100499.94;;;22.36;77.94
78014;BME280;67222;50.182;8.734;2023-06-22T07:00:09;100495.53;;;22.46;79.61
78014;BME280;67222;50.182;8.734;2023-06-22T07:02:38;100485.22;;;22.43;78.65
78014;BME280;67222;50.182;8.734;2023-06-22T07:05:05;100487.38;;;22.46;77.30
78014;BME280;67222;50.182;8.734;2023-06-22T07:07:31;100482.47;;;22.48;78.22
78014;BME280;67222;50.182;8.734;2023-06-22T07:09:56;100485.69;;;22.55;77.49
78014;BME280;67222;50.182;8.734;2023-06-22T07:12:21;100496.25;;;22.61;77.32
78014;BME280;67222;50.182;8.734;2023-06-22T07:14:47;100495.16;;;22.62;78.42
78014;BME280;67222;50.182;8.734;2023-06-22T07:17:12;100480.47;;;22.63;78.87
78014;BME280;67222;50.182;8.734;2023-06-22T07:19:37;100481.00;;;22.65;77.11
78014;BME280;67222;50.182;8.734;2023-06-22T07:22:04;100488.03;;;22.72;78.72
78014;BME280;67222;50.182;8.734;2023-06-22T07:24:29;100477.44;;;22.70;77.54
78014;BME280;67222;50.182;8.734;2023-06-22T07:26:54;100476.59;;;22.75;77.37
78014;BME280;67222;50.182;8.734;2023-06-22T07:29:22;100473.81;;;22.80;76.90
78014;BME280;67222;50.182;8.734;2023-06-22T07:31:49;100474.63;;;22.85;75.98
78014;BME280;67222;50.182;8.734;2023-06-22T07:34:16;100477.56;;;22.94;75.74
78014;BME280;67222;50.182;8.734;2023-06-22T07:36:42;100466.63;;;22.99;76.34
78014;BME280;67222;50.182;8.734;2023-06-22T07:39:07;100476.66;;;23.04;75.86
78014;BME280;67222;50.182;8.734;2023-06-22T07:41:32;100469.84;;;23.06;75.50
78014;BME280;67222;50.182;8.734;2023-06-22T07:43:58;100466.84;;;23.08;75.62
78014;BME280;67222;50.182;8.734;2023-06-22T07:46:23;100454.56;;;23.10;75.54
78014;BME280;67222;50.182;8.734;2023-06-22T07:48:49;100453.66;;;23.20;75.96
78014;BME280;67222;50.182;8.734;2023-06-22T07:51:14;100454.97;;;23.22;76.02
78014;BME280;67222;50.182;8.734;2023-06-22T07:53:41;100453.50;;;23.35;76.57
78014;BME280;67222;50.182;8.734;2023-06-22T07:56:07;100446.97;;;23.36;76.07
78014;BME280;67222;50.182;8.734;2023-06-22T07:58:32;100452.88;;;23.43;76.38
78014;BME280;67222;50.182;8.734;2023-06-22T08:00:58;100440.91;;;23.44;74.63
78014;BME280;67222;50.182;8.734;2023-06-22T08:03:23;100438.63;;;23.51;76.19
78014;BME280;67222;50.182;8.734;2023-06-22T08:05:49;100440.22;;;23.58;75.22
78014;BME280;67222;50.182;8.734;2023-06-22T08:08:14;100444.00;;;23.62;74.06
78014;BME280;67222;50.182;8.734;2023-06-22T08:10:40;100444.41;;;23.74;73.91
78014;BME280;67222;50.182;8.734;2023-06-22T08:13:07;100430.44;;;23.80;72.84
78014;BME280;67222;50.182;8.734;2023-06-22T08:15:32;100437.59;;;23.95;73.09
78014;BME280;67222;50.182;8.734;2023-06-22T08:17:57;100433.03;;;24.09;72.39
78014;BME280;67222;50.182;8.734;2023-06-22T08:20:24;100444.25;;;24.27;70.54
78014;BME280;67222;50.182;8.734;2023-06-22T08:22:49;100430.28;;;24.33;70.41
78014;BME280;67222;50.182;8.734;2023-06-22T08:25:14;100434.78;;;24.43;70.11
78014;BME280;67222;50.182;8.734;2023-06-22T08:27:40;100428.94;;;24.50;69.80
78014;BME280;67222;50.182;8.734;2023-06-22T08:30:06;100429.09;;;24.58;69.81
78014;BME280;67222;50.182;8.734;2023-06-22T08:32:32;100417.75;;;24.84;68.89
78014;BME280;67222;50.182;8.734;2023-06-22T08:35:00;100424.06;;;24.98;69.68
78014;BME280;67222;50.182;8.734;2023-06-22T08:37:25;100417.44;;;25.04;67.95
78014;BME280;67222;50.182;8.734;2023-06-22T08:39:59;100413.13;;;25.17;67.14
78014;BME280;67222;50.182;8.734;2023-06-22T08:42:24;100416.56;;;25.22;67.78
78014;BME280;67222;50.182;8.734;2023-06-22T08:44:50;100408.00;;;25.29;66.96
78014;BME280;67222;50.182;8.734;2023-06-22T08:47:16;100402.31;;;25.39;65.17
78014;BME280;67222;50.182;8.734;2023-06-22T08:49:41;100406.06;;;25.57;66.31
78014;BME280;67222;50.182;8.734;2023-06-22T08:52:07;100401.53;;;25.66;64.11
78014;BME280;67222;50.182;8.734;2023-06-22T08:54:32;100397.59;;;25.72;65.73
78014;BME280;67222;50.182;8.734;2023-06-22T08:57:00;100402.25;;;25.85;65.76
78014;BME280;67222;50.182;8.734;2023-06-22T08:59:25;100409.75;;;26.02;64.76
78014;BME280;67222;50.182;8.734;2023-06-22T09:01:50;100398.75;;;26.07;64.66
78014;BME280;67222;50.182;8.734;2023-06-22T09:04:15;100387.00;;;26.07;65.76
78014;BME280;67222;50.182;8.734;2023-06-22T09:06:41;100380.91;;;26.10;63.41
78014;BME280;67222;50.182;8.734;2023-06-22T09:09:11;100389.19;;;26.18;64.52
78014;BME280;67222;50.182;8.734;2023-06-22T09:11:37;100379.44;;;26.26;63.18
78014;BME280;67222;50.182;8.734;2023-06-22T09:14:02;100381.66;;;26.38;64.47
78014;BME280;67222;50.182;8.734;2023-06-22T09:16:29;100375.31;;;26.51;62.91
78014;BME280;67222;50.182;8.734;2023-06-22T09:18:54;100377.59;;;26.58;63.81
78014;BME280;67222;50.182;8.734;2023-06-22T09:21:19;100383.00;;;26.71;63.12
78014;BME280;67222;50.182;8.734;2023-06-22T09:23:45;100376.81;;;26.79;60.76
78014;BME280;67222;50.182;8.734;2023-06-22T09:26:15;100378.13;;;26.91;62.20
78014;BME280;67222;50.182;8.734;2023-06-22T09:28:40;100371.41;;;26.97;58.58
78014;BME280;67222;50.182;8.734;2023-06-22T09:31:05;100361.47;;;27.01;61.52
78014;BME280;67222;50.182;8.734;2023-06-22T09:33:32;100359.03;;;26.99;61.60
78014;BME280;67222;50.182;8.734;2023-06-22T09:35:57;100350.78;;;27.22;58.61
78014;BME280;67222;50.182;8.734;2023-06-22T09:38:23;100356.63;;;27.37;59.23
78014;BME280;67222;50.182;8.734;2023-06-22T09:40:48;100347.13;;;27.43;58.63
78014;BME280;67222;50.182;8.734;2023-06-22T09:43:13;100349.00;;;27.65;56.28
78014;BME280;67222;50.182;8.734;2023-06-22T09:45:39;100340.63;;;27.79;55.88
78014;BME280;67222;50.182;8.734;2023-06-22T09:48:04;100333.88;;;27.94;54.62
78014;BME280;67222;50.182;8.734;2023-06-22T09:50:29;100322.75;;;27.99;56.61
78014;BME280;67222;50.182;8.734;2023-06-22T09:52:55;100314.84;;;27.97;56.78
78014;BME280;67222;50.182;8.734;2023-06-22T09:55:21;100324.69;;;27.98;53.48
78014;BME280;67222;50.182;8.734;2023-06-22T09:57:46;100325.63;;;28.02;54.46
78014;BME280;67222;50.182;8.734;2023-06-22T10:00:12;100321.13;;;28.06;55.10
78014;BME280;67222;50.182;8.734;2023-06-22T10:02:39;100315.66;;;28.15;53.87
78014;BME280;67222;50.182;8.734;2023-06-22T10:05:05;100314.69;;;28.28;52.68
78014;BME280;67222;50.182;8.734;2023-06-22T10:07:30;100316.91;;;28.44;53.33
78014;BME280;67222;50.182;8.734;2023-06-22T10:09:55;100314.81;;;28.49;53.46
78014;BME280;67222;50.182;8.734;2023-06-22T10:12:20;100311.13;;;28.45;51.70
78014;BME280;67222;50.182;8.734;2023-06-22T10:14:46;100304.81;;;28.53;52.04
78014;BME280;67222;50.182;8.734;2023-06-22T10:17:11;100305.75;;;28.66;52.08
78014;BME280;67222;50.182;8.734;2023-06-22T10:19:37;100293.56;;;28.84;50.32
78014;BME280;67222;50.182;8.734;2023-06-22T10:22:04;100294.50;;;28.97;50.24
78014;BME280;67222;50.182;8.734;2023-06-22T10:24:30;100282.22;;;29.03;48.86
78014;BME280;67222;50.182;8.734;2023-06-22T10:26:55;100283.63;;;29.09;48.55
78014;BME280;67222;50.182;8.734;2023-06-22T10:29:20;100277.00;;;29.10;46.85
78014;BME280;67222;50.182;8.734;2023-06-22T10:31:46;100270.41;;;29.03;47.12
78014;BME280;67222;50.182;8.734;2023-06-22T10:34:11;100278.34;;;28.95;46.84
78014;BME280;67222;50.182;8.734;2023-06-22T10:36:36;100267.28;;;28.75;47.36
78014;BME280;67222;50.182;8.734;2023-06-22T10:39:02;100270.22;;;28.61;46.84
78014;BME280;67222;50.182;8.734;2023-06-22T10:41:28;100267.06;;;28.50;46.91
78014;BME280;67222;50.182;8.734;2023-06-22T10:43:55;100258.97;;;28.54;48.06
78014;BME280;67222;50.182;8.734;2023-06-22T10:46:20;100253.59;;;28.66;47.73
78014;BME280;67222;50.182;8.734;2023-06-22T10:48:47;100252.88;;;28.78;48.28
78014;BME280;67222;50.182;8.734;2023-06-22T10:51:12;100244.34;;;28.88;47.03
78014;BME280;67222;50.182;8.734;2023-06-22T10:53:37;100235.53;;;29.03;47.03
78014;BME280;67222;50.182;8.734;2023-06-22T10:56:03;100233.19;;;29.14;47.19
78014;BME280;67222;50.182;8.734;2023-06-22T10:58:28;100222.75;;;29.28;46.78
78014;BME280;67222;50.182;8.734;2023-06-22T11:00:53;100225.34;;;29.54;47.11
78014;BME280;67222;50.182;8.734;2023-06-22T11:03:19;100218.63;;;29.64;46.07
78014;BME280;67222;50.182;8.734;2023-06-22T11:05:44;100213.47;;;29.83;45.15
78014;BME280;67222;50.182;8.734;2023-06-22T11:08:09;100199.94;;;29.90;44.60
78014;BME280;67222;50.182;8.734;2023-06-22T11:10:35;100197.94;;;29.99;43.22
78014;BME280;67222;50.182;8.734;2023-06-22T11:13:00;100193.25;;;30.00;42.42
78014;BME280;67222;50.182;8.734;2023-06-22T11:15:25;100191.75;;;30.02;43.54
78014;BME280;67222;50.182;8.734;2023-06-22T11:17:51;100189.69;;;29.99;43.56
78014;BME280;67222;50.182;8.734;2023-06-22T11:20:16;100180.09;;;30.05;43.28
78014;BME280;67222;50.182;8.734;2023-06-22T11:22:41;100167.28;;;30.22;44.96
78014;BME280;67222;50.182;8.734;2023-06-22T11:25:07;100165.97;;;30.52;44.38
78014;BME280;67222;50.182;8.734;2023-06-22T11:27:33;100157.91;;;30.59;43.71
78014;BME280;67222;50.182;8.734;2023-06-22T11:29:59;100153.56;;;30.58;43.65
78014;BME280;67222;50.182;8.734;2023-06-22T11:32:24;100157.56;;;30.49;43.45
78014;BME280;67222;50.182;8.734;2023-06-22T11:34:50;100158.94;;;30.30;43.95
78014;BME280;67222;50.182;8.734;2023-06-22T11:37:15;100149.75;;;30.26;45.31
78014;BME280;67222;50.182;8.734;2023-06-22T11:39:41;100149.09;;;30.41;43.45
78014;BME280;67222;50.182;8.734;2023-06-22T11:42:07;100146.25;;;30.62;44.02
78014;BME280;67222;50.182;8.734;2023-06-22T11:44:33;100142.44;;;30.55;43.57
78014;BME280;67222;50.182;8.734;2023-06-22T11:46:58;100136.38;;;30.61;44.12
78014;BME280;67222;50.182;8.734;2023-06-22T11:49:26;100129.84;;;30.78;44.35
78014;BME280;67222;50.182;8.734;2023-06-22T11:51:51;100130.81;;;30.98;42.38
78014;BME280;67222;50.182;8.734;2023-06-22T11:54:16;100128.88;;;30.98;43.61
78014;BME280;67222;50.182;8.734;2023-06-22T11:56:42;100128.56;;;30.88;42.47
78014;BME280;67222;50.182;8.734;2023-06-22T11:59:07;100126.19;;;30.74;43.08
78014;BME280;67222;50.182;8.734;2023-06-22T12:01:32;100115.47;;;30.48;43.15
78014;BME280;67222;50.182;8.734;2023-06-22T12:03:58;100113.53;;;30.49;43.41
78014;BME280;67222;50.182;8.734;2023-06-22T12:06:23;100122.47;;;30.58;44.58
78014;BME280;67222;50.182;8.734;2023-06-22T12:08:48;100106.19;;;30.77;44.17
78014;BME280;67222;50.182;8.734;2023-06-22T12:11:14;100114.75;;;31.00;43.08
78014;BME280;67222;50.182;8.734;2023-06-22T12:13:39;100110.13;;;31.04;43.08
78014;BME280;67222;50.182;8.734;2023-06-22T12:16:04;100105.50;;;30.92;42.88
78014;BME280;67222;50.182;8.734;2023-06-22T12:18:30;100109.28;;;30.88;42.54
78014;BME280;67222;50.182;8.734;2023-06-22T12:20:55;100111.81;;;30.81;43.09
78014;BME280;67222;50.182;8.734;2023-06-22T12:23:20;100103.56;;;30.81;43.64
78014;BME280;67222;50.182;8.734;2023-06-22T12:25:46;100095.75;;;30.83;43.46
78014;BME280;67222;50.182;8.734;2023-06-22T12:28:11;100096.44;;;30.92;43.30
78014;BME280;67222;50.182;8.734;2023-06-22T12:30:36;100097.53;;;31.03;42.71
78014;BME280;67222;50.182;8.734;2023-06-22T12:33:02;100087.63;;;31.14;43.01
78014;BME280;67222;50.182;8.734;2023-06-22T12:35:27;100092.16;;;31.34;41.85
78014;BME280;67222;50.182;8.734;2023-06-22T12:37:52;100087.31;;;31.44;42.58
78014;BME280;67222;50.182;8.734;2023-06-22T12:40:18;100084.13;;;31.57;45.11
78014;BME280;67222;50.182;8.734;2023-06-22T12:42:44;100079.97;;;31.63;44.55
78014;BME280;67222;50.182;8.734;2023-06-22T12:45:10;100074.69;;;31.86;42.92
78014;BME280;67222;50.182;8.734;2023-06-22T12:47:35;100072.38;;;31.88;42.43
78014;BME280;67222;50.182;8.734;2023-06-22T12:50:00;100069.53;;;31.85;41.98
78014;BME280;67222;50.182;8.734;2023-06-22T12:52:26;100075.09;;;31.73;42.23
78014;BME280;67222;50.182;8.734;2023-06-22T12:54:51;100068.59;;;31.65;42.41
78014;BME280;67222;50.182;8.734;2023-06-22T12:57:17;100062.97;;;31.46;42.72
78014;BME280;67222;50.182;8.734;2023-06-22T12:59:44;100070.03;;;31.31;42.44
78014;BME280;67222;50.182;8.734;2023-06-22T13:02:10;100065.38;;;31.19;43.10
78014;BME280;67222;50.182;8.734;2023-06-22T13:04:35;100071.59;;;31.04;43.43
78014;BME280;67222;50.182;8.734;2023-06-22T13:07:00;100074.50;;;30.95;42.36
78014;BME280;67222;50.182;8.734;2023-06-22T13:09:25;100076.91;;;30.85;43.48
78014;BME280;67222;50.182;8.734;2023-06-22T13:11:51;100077.97;;;30.80;43.17
78014;BME280;67222;50.182;8.734;2023-06-22T13:14:17;100077.88;;;30.77;43.51
78014;BME280;67222;50.182;8.734;2023-06-22T13:16:43;100064.22;;;30.68;43.03
78014;BME280;67222;50.182;8.734;2023-06-22T13:19:08;100072.25;;;30.61;43.31
78014;BME280;67222;50.182;8.734;2023-06-22T13:21:33;100071.00;;;30.58;44.25
78014;BME280;67222;50.182;8.734;2023-06-22T13:23:59;100057.13;;;30.42;43.27
78014;BME280;67222;50.182;8.734;2023-06-22T13:26:24;100058.06;;;30.34;45.05
78014;BME280;67222;50.182;8.734;2023-06-22T13:28:50;100056.81;;;30.32;44.54
78014;BME280;67222;50.182;8.734;2023-06-22T13:31:15;100046.13;;;30.30;44.95
78014;BME280;67222;50.182;8.734;2023-06-22T13:33:40;100044.63;;;30.45;44.74
78014;BME280;67222;50.182;8.734;2023-06-22T13:36:07;100042.19;;;30.80;45.01
78014;BME280;67222;50.182;8.734;2023-06-22T13:38:33;100031.28;;;31.12;43.22
78014;BME280;67222;50.182;8.734;2023-06-22T13:40:59;100028.53;;;31.24;43.06
78014;BME280;67222;50.182;8.734;2023-06-22T13:43:26;100029.63;;;31.23;43.96
78014;BME280;67222;50.182;8.734;2023-06-22T13:45:52;100025.28;;;31.22;43.78
78014;BME280;67222;50.182;8.734;2023-06-22T13:48:18;100019.50;;;30.99;44.99
78014;BME280;67222;50.182;8.734;2023-06-22T13:50:43;100013.84;;;30.80;43.61
78014;BME280;67222;50.182;8.734;2023-06-22T13:53:09;99999.22;;;30.63;44.57
78014;BME280;67222;50.182;8.734;2023-06-22T13:55:34;100003.81;;;30.47;44.90
78014;BME280;67222;50.182;8.734;2023-06-22T13:57:59;99987.09;;;30.40;45.34
78014;BME280;67222;50.182;8.734;2023-06-22T14:00:24;99997.41;;;30.43;46.88
78014;BME280;67222;50.182;8.734;2023-06-22T14:02:50;99997.75;;;30.41;48.21
78014;BME280;67222;50.182;8.734;2023-06-22T14:05:16;99996.13;;;30.53;46.78
78014;BME280;67222;50.182;8.734;2023-06-22T14:07:41;99982.31;;;30.77;44.18
78014;BME280;67222;50.182;8.734;2023-06-22T14:10:07;99975.00;;;30.97;44.58
78014;BME280;67222;50.182;8.734;2023-06-22T14:12:32;99971.34;;;31.21;45.18
78014;BME280;67222;50.182;8.734;2023-06-22T14:14:58;99956.53;;;31.25;43.33
78014;BME280;67222;50.182;8.734;2023-06-22T14:17:23;99937.78;;;31.47;43.28
78014;BME280;67222;50.182;8.734;2023-06-22T14:19:51;99929.16;;;31.64;42.79
78014;BME280;67222;50.182;8.734;2023-06-22T14:22:21;99919.00;;;31.84;43.11
78014;BME280;67222;50.182;8.734;2023-06-22T14:24:47;99929.53;;;31.98;42.54
78014;BME280;67222;50.182;8.734;2023-06-22T14:27:12;99931.25;;;32.02;42.61
78014;BME280;67222;50.182;8.734;2023-06-22T14:29:38;99933.25;;;31.86;42.12
78014;BME280;67222;50.182;8.734;2023-06-22T14:32:03;99920.59;;;31.85;43.53
78014;BME280;67222;50.182;8.734;2023-06-22T14:34:31;99919.72;;;31.65;41.73
78014;BME280;67222;50.182;8.734;2023-06-22T14:36:56;99919.34;;;31.67;41.87
78014;BME280;67222;50.182;8.734;2023-06-22T14:39:21;99916.78;;;31.58;42.05
78014;BME280;67222;50.182;8.734;2023-06-22T14:41:46;99921.06;;;31.55;43.97
78014;BME280;67222;50.182;8.734;2023-06-22T14:44:12;99909.66;;;31.41;42.72
78014;BME280;67222;50.182;8.734;2023-06-22T14:46:37;99908.53;;;31.26;42.63
78014;BME280;67222;50.182;8.734;2023-06-22T14:49:02;99901.13;;;31.15;43.07
78014;BME280;67222;50.182;8.734;2023-06-22T14:51:28;99893.63;;;30.99;43.73
78014;BME280;67222;50.182;8.734;2023-06-22T14:53:53;99885.09;;;30.89;44.36
78014;BME280;67222;50.182;8.734;2023-06-22T14:56:18;99875.75;;;30.78;44.55
78014;BME280;67222;50.182;8.734;2023-06-22T14:58:44;99877.59;;;30.73;45.57
78014;BME280;67222;50.182;8.734;2023-06-22T15:01:12;99877.34;;;30.79;44.29
78014;BME280;67222;50.182;8.734;2023-06-22T15:03:37;99861.69;;;30.67;42.47
78014;BME280;67222;50.182;8.734;2023-06-22T15:06:03;99868.69;;;30.64;43.66
78014;BME280;67222;50.182;8.734;2023-06-22T15:08:29;99859.78;;;30.55;42.93
78014;BME280;67222;50.182;8.734;2023-06-22T15:10:54;99865.38;;;30.59;42.50
78014;BME280;67222;50.182;8.734;2023-06-22T15:13:20;99852.91;;;30.49;42.20
78014;BME280;67222;50.182;8.734;2023-06-22T15:15:47;99860.34;;;30.33;42.55
78014;BME280;67222;50.182;8.734;2023-06-22T15:18:16;99861.81;;;30.30;40.07
78014;BME280;67222;50.182;8.734;2023-06-22T15:20:42;99860.72;;;30.19;41.47
78014;BME280;67222;50.182;8.734;2023-06-22T15:23:11;99852.16;;;30.08;40.92
78014;BME280;67222;50.182;8.734;2023-06-22T15:25:37;99849.16;;;30.01;41.33
78014;BME280;67222;50.182;8.734;2023-06-22T15:28:02;99866.38;;;29.98;42.10
78014;BME280;67222;50.182;8.734;2023-06-22T15:30:28;99872.44;;;29.92;41.42
78014;BME280;67222;50.182;8.734;2023-06-22T15:32:54;99852.09;;;29.80;41.95
78014;BME280;67222;50.182;8.734;2023-06-22T15:35:20;99852.66;;;29.74;43.99
78014;BME280;67222;50.182;8.734;2023-06-22T15:37:45;99861.84;;;29.66;44.78
78014;BME280;67222;50.182;8.734;2023-06-22T15:40:11;99863.56;;;29.58;43.17
78014;BME280;67222;50.182;8.734;2023-06-22T15:42:36;99882.56;;;29.51;43.56
78014;BME280;67222;50.182;8.734;2023-06-22T15:45:02;99947.81;;;29.66;41.56
78014;BME280;67222;50.182;8.734;2023-06-22T15:47:27;99936.44;;;28.65;47.46
78014;BME280;67222;50.182;8.734;2023-06-22T15:49:53;99924.50;;;28.19;48.70
78014;BME280;67222;50.182;8.734;2023-06-22T15:52:18;99909.38;;;27.63;50.70
78014;BME280;67222;50.182;8.734;2023-06-22T15:54:45;99890.84;;;27.13;52.08
78014;BME280;67222;50.182;8.734;2023-06-22T15:57:10;99873.16;;;27.10;52.85
78014;BME280;67222;50.182;8.734;2023-06-22T15:59:42;99866.75;;;26.89;53.19
78014;BME280;67222;50.182;8.734;2023-06-22T16:02:08;99860.53;;;26.63;54.14
78014;BME280;67222;50.182;8.734;2023-06-22T16:04:34;99843.28;;;26.71;54.96
78014;BME280;67222;50.182;8.734;2023-06-22T16:06:59;99839.00;;;26.61;54.65
78014;BME280;67222;50.182;8.734;2023-06-22T16:09:25;99840.59;;;26.53;54.93
78014;BME280;67222;50.182;8.734;2023-06-22T16:11:51;99854.28;;;26.36;56.09
78014;BME280;67222;50.182;8.734;2023-06-22T16:14:16;99868.75;;;26.28;55.27
78014;BME280;67222;50.182;8.734;2023-06-22T16:16:41;99879.63;;;25.93;57.27
78014;BME280;67222;50.182;8.734;2023-06-22T16:19:07;99943.88;;;25.82;58.26
78014;BME280;67222;50.182;8.734;2023-06-22T16:21:32;100023.63;;;25.62;57.79
78014;BME280;67222;50.182;8.734;2023-06-22T16:23:57;100038.38;;;25.08;56.93
78014;BME280;67222;50.182;8.734;2023-06-22T16:26:22;100044.53;;;24.63;57.98
78014;BME280;67222;50.182;8.734;2023-06-22T16:28:48;100068.59;;;24.34;59.68
78014;BME280;67222;50.182;8.734;2023-06-22T16:31:14;100077.09;;;23.72;62.94
78014;BME280;67222;50.182;8.734;2023-06-22T16:33:40;100100.34;;;23.32;65.14
78014;BME280;67222;50.182;8.734;2023-06-22T16:36:12;100124.31;;;22.92;68.10
78014;BME280;67222;50.182;8.734;2023-06-22T16:38:37;100141.28;;;22.36;75.64
78014;BME280;67222;50.182;8.734;2023-06-22T16:41:03;100104.44;;;20.94;81.71
78014;BME280;67222;50.182;8.734;2023-06-22T16:43:30;100082.47;;;20.31;85.26
78014;BME280;67222;50.182;8.734;2023-06-22T16:45:55;100045.00;;;19.79;81.55
78014;BME280;67222;50.182;8.734;2023-06-22T16:48:20;100019.84;;;19.73;84.72
78014;BME280;67222;50.182;8.734;2023-06-22T16:50:45;100006.03;;;19.70;87.49
78014;BME280;67222;50.182;8.734;2023-06-22T16:53:11;100013.38;;;19.64;85.54
78014;BME280;67222;50.182;8.734;2023-06-22T16:55:37;100001.19;;;19.66;87.43
78014;BME280;67222;50.182;8.734;2023-06-22T16:58:03;100018.22;;;19.52;84.51
78014;BME280;67222;50.182;8.734;2023-06-22T17:00:29;100019.88;;;19.58;88.69
78014;BME280;67222;50.182;8.734;2023-06-22T17:02:56;100015.53;;;19.67;90.09
78014;BME280;67222;50.182;8.734;2023-06-22T17:05:26;100009.84;;;19.63;87.49
78014;BME280;67222;50.182;8.734;2023-06-22T17:07:58;100015.00;;;19.60;87.61
78014;BME280;67222;50.182;8.734;2023-06-22T17:10:25;100007.72;;;19.55;86.93
78014;BME280;67222;50.182;8.734;2023-06-22T17:12:51;100001.47;;;19.65;88.58
78014;BME280;67222;50.182;8.734;2023-06-22T17:15:17;100004.94;;;19.81;90.20